Time;durP1;ratioP1;P1;durP2;ratioP2;P2;SDS_P1;SDS_P2;PMS_P1;PMS_P2;Temp;Humidity;BMP_temperature;BMP_pressure;BME280_temperature;BME280_humidity;BME280_pressure;Samples;Min_cycle;Max_cycle;Signal;HPM_P1;HPM_P2
2021/03/24 00:04:14;;;;;;;22.37;9.67;;;1.40;99.90;;;2.31;100.00;98971.22;5093277;28;20517;-81
2021/03/24 00:10:48;;;;;;;19.37;9.73;;;1.20;99.90;;;2.03;100.00;98967.25;5092918;28;20506;-81
2021/03/24 00:17:22;;;;;;;14.93;8.70;;;1.40;99.90;;;2.13;100.00;98970.78;5092831;28;20503;-81
2021/03/24 00:23:50;;;;;;;18.33;9.43;;;1.20;99.90;;;2.15;100.00;98983.59;5092727;28;20818;-81
2021/03/24 00:30:28;;;;;;;19.03;8.70;;;1.40;99.90;;;2.19;100.00;98982.41;5092605;28;20882;-81
2021/03/24 00:37:01;;;;;;;17.40;8.57;;;1.20;99.90;;;1.95;100.00;98987.59;5092571;28;20494;-81
2021/03/24 00:48:20;;;;;;;17.47;8.30;;;1.00;99.90;;;1.88;100.00;98979.47;5096635;28;20531;-81
2021/03/24 00:54:55;;;;;;;22.20;8.50;;;0.90;99.90;;;1.95;100.00;98985.00;5096568;28;20423;-81
2021/03/24 01:01:29;;;;;;;22.03;9.57;;;1.20;99.90;;;1.91;100.00;98983.56;5096348;28;20418;-81
2021/03/24 01:07:58;;;;;;;14.20;8.30;;;0.70;99.90;;;1.75;100.00;98975.31;5096191;28;20423;-81
2021/03/24 01:14:32;;;;;;;22.13;8.53;;;1.00;99.90;;;1.59;100.00;98972.16;5096039;28;20454;-81
2021/03/24 01:21:06;;;;;;;12.83;7.50;;;0.70;99.90;;;1.65;100.00;98971.72;5095931;28;20427;-81
2021/03/24 01:27:41;;;;;;;14.50;7.10;;;0.60;99.90;;;1.67;100.00;98965.53;5095995;28;20494;-81
2021/03/24 01:34:15;;;;;;;13.83;8.13;;;0.80;99.90;;;1.48;100.00;98960.88;5095719;28;20542;-81
2021/03/24 01:40:53;;;;;;;16.40;8.43;;;0.50;99.90;;;1.60;100.00;98960.94;5095702;28;20423;-81
2021/03/24 01:47:46;;;;;;;12.53;7.00;;;0.70;99.90;;;1.62;100.00;98966.78;5095496;28;20431;-81
2021/03/24 01:54:26;;;;;;;14.50;8.03;;;0.80;99.90;;;1.63;100.00;98958.13;5095530;28;20419;-81
2021/03/24 02:00:54;;;;;;;14.70;7.83;;;0.50;99.90;;;1.28;100.00;98963.19;5095635;28;20451;-81
2021/03/24 02:07:38;;;;;;;15.50;8.53;;;0.50;99.90;;;1.33;100.00;98961.91;5095133;28;20458;-81
2021/03/24 02:14:18;;;;;;;15.10;8.10;;;0.30;99.90;;;1.36;100.00;98953.16;5095335;28;20785;-81
2021/03/24 02:20:59;;;;;;;10.50;6.67;;;0.40;99.90;;;1.26;100.00;98963.28;5094861;28;20462;-81
2021/03/24 02:27:47;;;;;;;13.30;7.93;;;0.30;99.90;;;1.09;100.00;98967.94;5095003;28;20485;-81
2021/03/24 02:34:28;;;;;;;17.73;7.63;;;0.30;99.90;;;1.25;100.00;98966.78;5094835;28;20445;-81
2021/03/24 02:41:03;;;;;;;12.40;7.53;;;0.40;99.90;;;1.26;100.00;98954.72;5094429;28;20427;-81
2021/03/24 02:47:40;;;;;;;13.47;7.73;;;0.50;99.90;;;1.23;100.00;98958.34;5094227;28;20955;-81
2021/03/24 02:54:20;;;;;;;11.70;7.60;;;0.20;99.90;;;1.15;100.00;98960.59;5094264;28;20414;-81
2021/03/24 03:00:56;;;;;;;10.93;7.03;;;0.20;99.90;;;1.05;100.00;98962.16;5094245;28;20446;-81
2021/03/24 03:07:37;;;;;;;11.60;6.90;;;0.20;99.90;;;0.93;100.00;98969.00;5094133;28;20411;-81
2021/03/24 03:14:13;;;;;;;14.70;8.27;;;0.10;99.90;;;0.95;100.00;98974.03;5094036;28;20609;-81
2021/03/24 03:21:13;;;;;;;14.80;8.40;;;0.00;99.90;;;1.02;100.00;98963.22;5093700;28;20513;-81
2021/03/24 03:27:59;;;;;;;15.00;6.60;;;0.00;99.90;;;0.76;100.00;98963.34;5093636;28;20498;-81
2021/03/24 03:34:28;;;;;;;13.97;7.73;;;-0.10;99.90;;;0.89;100.00;98964.16;5094087;28;20431;-81
2021/03/24 03:41:08;;;;;;;17.90;6.90;;;-0.10;99.90;;;0.72;100.00;98959.31;5093371;28;20537;-81
2021/03/24 03:48:04;;;;;;;11.60;6.10;;;-0.10;99.90;;;0.74;100.00;98952.31;5093242;28;20926;-81
2021/03/24 03:54:44;;;;;;;13.43;6.60;;;0.00;99.90;;;0.76;100.00;98953.03;5093121;28;20461;-81
2021/03/24 04:01:24;;;;;;;12.63;7.20;;;-0.20;99.90;;;0.72;100.00;98947.28;5093823;28;20788;-81
2021/03/24 04:08:04;;;;;;;11.00;6.33;;;-0.20;99.90;;;0.64;100.00;98951.28;5095926;28;20766;-81
2021/03/24 04:14:41;;;;;;;11.87;6.33;;;-0.20;99.90;;;0.64;100.00;98938.41;5093250;28;20515;-81
2021/03/24 04:21:17;;;;;;;10.80;7.37;;;-0.20;99.90;;;0.63;100.00;98949.63;5093120;28;20415;-80
2021/03/24 04:27:49;;;;;;;12.97;7.53;;;-0.20;99.90;;;0.62;100.00;98948.81;5093128;28;20875;-81
2021/03/24 04:34:24;;;;;;;14.50;7.50;;;0.00;99.90;;;0.63;100.00;98947.03;5093170;28;20476;-81
2021/03/24 04:41:04;;;;;;;9.97;6.10;;;-0.10;99.90;;;0.64;100.00;98954.69;5092433;28;20525;-81
2021/03/24 04:47:40;;;;;;;11.77;6.10;;;-0.20;99.90;;;0.64;100.00;98952.09;5092592;28;21043;-80
2021/03/24 04:54:19;;;;;;;13.97;7.13;;;-0.30;99.90;;;0.63;100.00;98954.75;5092541;28;20469;-84
2021/03/24 05:01:01;;;;;;;15.20;7.77;;;-0.30;99.90;;;0.46;100.00;98945.59;5092497;28;20422;-81
2021/03/24 05:07:43;;;;;;;16.10;6.70;;;-0.40;99.90;;;0.32;100.00;98956.81;5092478;28;20423;-81
2021/03/24 05:14:24;;;;;;;18.37;7.10;;;-0.50;99.90;;;0.47;100.00;98966.09;5092207;28;20469;-83
2021/03/24 05:21:07;;;;;;;12.33;7.20;;;-0.40;99.90;;;0.41;100.00;98952.81;5092331;28;21039;-80
2021/03/24 05:27:47;;;;;;;15.67;6.80;;;-0.30;99.90;;;0.47;100.00;98960.13;5096036;28;20511;-80
2021/03/24 05:34:28;;;;;;;16.40;7.60;;;-0.30;99.90;;;0.32;100.00;98961.94;5096338;28;20405;-79
2021/03/24 05:41:27;;;;;;;12.07;6.60;;;-0.60;99.90;;;0.33;100.00;98958.47;5096091;28;20461;-79
2021/03/24 05:48:38;;;;;;;13.73;7.47;;;-0.70;99.90;;;0.18;100.00;98969.72;5095982;28;20536;-80
2021/03/24 05:55:35;;;;;;;14.03;7.50;;;-0.50;99.90;;;0.37;100.00;98971.94;5095757;28;21015;-80
2021/03/24 06:02:13;;;;;;;15.37;7.70;;;-0.40;99.90;;;0.31;100.00;98960.28;5095692;28;20830;-79
2021/03/24 06:09:25;;;;;;;14.90;7.37;;;-0.60;99.90;;;0.29;100.00;98969.03;5095492;28;20461;-79
2021/03/24 06:16:23;;;;;;;15.67;7.40;;;-0.60;99.90;;;0.38;100.00;98973.59;5096345;28;20941;-80
2021/03/24 06:23:37;;;;;;;17.50;8.57;;;-0.40;99.90;;;0.45;100.00;98965.34;5095699;28;20515;-79
2021/03/24 06:30:43;;;;;;;14.43;8.00;;;-0.40;99.90;;;0.59;100.00;98959.28;5095297;28;20919;-79
2021/03/24 06:38:00;;;;;;;14.30;7.17;;;-0.30;99.90;;;0.63;100.00;98965.88;5094414;28;20454;-79
2021/03/24 06:49:24;;;;;;;18.07;6.90;;;-0.30;99.90;;;0.69;100.00;98972.41;5094924;28;20828;-80
2021/03/24 06:56:47;;;;;;;12.10;7.30;;;-0.20;99.90;;;0.78;100.00;98964.03;5094606;28;20919;-79
2021/03/24 07:04:11;;;;;;;11.97;7.20;;;-0.10;99.90;;;0.87;100.00;98950.53;5094555;28;20418;-80
2021/03/24 07:11:06;;;;;;;14.60;7.17;;;0.10;99.90;;;1.08;100.00;98959.38;5094398;28;20973;-80
2021/03/24 07:18:27;;;;;;;15.67;7.23;;;0.20;99.90;;;1.30;100.00;98962.13;5094200;28;20458;-80
2021/03/24 07:25:35;;;;;;;15.07;7.40;;;0.50;99.90;;;1.38;100.00;98967.59;5094322;28;20524;-80
2021/03/24 07:32:20;;;;;;;15.93;8.03;;;0.60;99.90;;;1.53;100.00;98971.66;5093960;28;20419;-80
2021/03/24 07:39:23;;;;;;;16.93;7.60;;;0.90;99.90;;;1.73;100.00;98964.28;5093714;28;20990;-79
2021/03/24 07:50:39;;;;;;;20.47;8.73;;;1.10;99.90;;;2.03;100.00;98955.16;5093377;28;20473;-80
2021/03/24 07:57:30;;;;;;;15.50;7.67;;;1.30;99.90;;;2.29;100.00;98957.63;5093649;28;20406;-80
2021/03/24 08:04:33;;;;;;;13.27;7.90;;;1.60;99.90;;;2.51;100.00;98958.50;5093525;28;20943;-80
2021/03/24 08:11:17;;;;;;;15.77;8.90;;;1.80;99.90;;;2.70;100.00;98954.53;5093377;28;20461;-81
2021/03/24 08:17:56;;;;;;;17.30;9.10;;;2.00;99.90;;;2.92;100.00;98951.97;5093191;28;20982;-80
2021/03/24 08:24:52;;;;;;;20.80;8.63;;;2.30;99.90;;;3.13;100.00;98952.09;5093269;28;20415;-80
2021/03/24 08:32:31;;;;;;;15.00;8.03;;;2.50;99.90;;;3.33;100.00;98947.03;5093283;28;20451;-79
2021/03/24 08:39:40;;;;;;;17.30;8.23;;;2.70;99.90;;;3.55;100.00;98947.00;5092949;28;20520;-79
2021/03/24 08:50:30;;;;;;;19.40;8.90;;;3.20;99.90;;;3.90;100.00;98935.63;5092946;28;20442;-80
2021/03/24 08:57:19;;;;;;;16.13;8.20;;;3.40;99.90;;;4.13;100.00;98926.81;5092908;28;20418;-80
2021/03/24 09:04:26;;;;;;;15.90;7.47;;;3.70;99.90;;;4.44;100.00;98920.75;5096691;28;20826;-80
2021/03/24 09:11:32;;;;;;;20.40;8.23;;;4.30;99.90;;;4.83;100.00;98911.44;5096637;28;20403;-80
2021/03/24 09:18:21;;;;;;;15.90;7.73;;;4.50;99.90;;;5.20;100.00;98908.31;5096547;28;20961;-80
2021/03/24 09:25:12;;;;;;;16.37;8.23;;;4.80;99.90;;;5.55;100.00;98904.28;5096402;28;20499;-80
2021/03/24 09:32:21;;;;;;;16.23;8.87;;;5.20;99.90;;;5.98;100.00;98890.16;5096343;28;20423;-80
2021/03/24 09:38:53;;;;;;;19.10;8.57;;;5.60;99.90;;;6.23;100.00;98888.78;5096242;28;20540;-81
2021/03/24 09:49:35;;;;;;;20.90;9.33;;;6.10;99.90;;;6.78;100.00;98874.13;5095956;28;20469;-80
2021/03/24 09:56:07;;;;;;;22.90;10.20;;;6.40;99.90;;;7.14;100.00;98885.47;5095836;28;20491;-80
2021/03/24 10:02:50;;;;;;;19.33;9.63;;;6.90;99.90;;;7.60;100.00;98867.94;5095700;28;20503;-80
2021/03/24 10:09:35;;;;;;;20.30;9.20;;;7.20;99.90;;;7.77;100.00;98853.31;5095598;28;20469;-80
2021/03/24 10:16:15;;;;;;;25.23;11.00;;;7.30;99.90;;;7.98;100.00;98839.97;5095437;28;20418;-80
2021/03/24 10:22:56;;;;;;;18.10;9.47;;;7.70;99.90;;;8.21;100.00;98835.91;5095335;28;20450;-80
2021/03/24 10:29:43;;;;;;;26.03;11.17;;;7.90;99.90;;;8.52;97.52;98834.50;5095244;28;20419;-80
2021/03/24 10:36:23;;;;;;;20.53;9.60;;;8.20;99.90;;;8.72;96.24;98829.06;5094982;28;20411;-80
2021/03/24 10:42:58;;;;;;;21.43;9.97;;;8.30;99.90;;;8.84;95.17;98833.03;5094974;28;20507;-81
2021/03/24 10:50:16;;;;;;;20.80;9.63;;;8.60;99.90;;;9.14;92.86;98818.63;5094885;28;20439;-80
2021/03/24 10:57:36;;;;;;;25.63;9.80;;;8.90;99.90;;;9.41;87.95;98816.56;5094603;28;20507;-80
2021/03/24 11:04:43;;;;;;;15.30;8.43;;;9.00;99.90;;;9.50;86.74;98817.41;5094416;28;20880;-81
2021/03/24 11:11:23;;;;;;;20.40;9.20;;;9.30;99.20;;;9.78;84.34;98810.91;5094337;28;20441;-81
2021/03/24 11:18:07;;;;;;;24.07;9.73;;;9.40;99.90;;;9.98;83.70;98806.16;5094172;28;20419;-81
2021/03/24 11:24:51;;;;;;;17.00;8.07;;;9.70;98.50;;;10.23;77.78;98794.75;5094026;28;20453;-81
2021/03/24 11:31:40;;;;;;;15.70;7.30;;;9.80;97.50;;;10.39;77.84;98793.88;5094287;28;20423;-81
2021/03/24 11:38:35;;;;;;;15.70;7.40;;;9.90;96.80;;;10.48;75.63;98788.47;5093762;28;20512;-81
2021/03/24 11:45:11;;;;;;;19.47;9.47;;;10.10;96.80;;;10.60;75.52;98789.75;5093506;28;20532;-81
2021/03/24 11:52:21;;;;;;;19.90;9.10;;;10.20;96.80;;;10.74;75.46;98776.94;5093637;28;20931;-81
2021/03/24 11:59:07;;;;;;;15.60;8.00;;;10.40;96.70;;;11.04;72.49;98770.91;5093343;28;20462;-80
2021/03/24 12:05:40;;;;;;;13.83;7.53;;;10.70;95.60;;;11.23;68.54;98760.00;5093620;28;20423;-81
2021/03/24 12:12:21;;;;;;;19.60;8.23;;;10.70;95.30;;;11.24;70.45;98756.41;5093409;28;20427;-81
2021/03/24 12:18:56;;;;;;;13.37;7.30;;;10.80;95.70;;;11.52;72.31;98739.16;5093216;28;20558;-81
2021/03/24 12:25:31;;;;;;;15.67;7.93;;;11.00;96.10;;;11.60;71.88;98731.25;5093288;28;20766;-81
2021/03/24 12:32:06;;;;;;;14.00;7.63;;;11.20;95.90;;;11.68;70.59;98734.78;5093134;28;20841;-81
2021/03/24 12:38:45;;;;;;;16.60;8.47;;;11.20;95.70;;;11.75;71.58;98722.63;5097130;28;20478;-81
2021/03/24 12:49:31;;;;;;;14.60;6.80;;;11.40;95.90;;;12.01;71.25;98717.78;5097243;28;20427;-81
2021/03/24 12:56:41;;;;;;;12.80;7.73;;;11.60;95.60;;;12.07;70.18;98699.56;5096931;28;20422;-81
2021/03/24 13:04:09;;;;;;;15.90;6.50;;;11.70;95.50;;;12.29;69.33;98699.63;5096754;28;20833;-81
2021/03/24 13:10:51;;;;;;;14.60;6.53;;;11.90;95.30;;;12.44;69.66;98688.13;5096747;28;20418;-81
2021/03/24 13:17:49;;;;;;;12.50;6.50;;;12.10;95.00;;;12.66;66.04;98685.56;5096704;28;20418;-81
2021/03/24 13:24:50;;;;;;;11.73;7.13;;;12.30;94.10;;;12.88;64.15;98668.84;5096537;28;20445;-80
2021/03/24 13:31:32;;;;;;;16.77;8.73;;;12.40;94.40;;;13.00;63.35;98664.75;5096341;28;21029;-81
2021/03/24 13:38:22;;;;;;;15.70;7.40;;;12.50;94.00;;;13.01;64.34;98654.06;5096120;28;20965;-81
2021/03/24 13:45:07;;;;;;;15.23;7.40;;;12.70;94.40;;;13.24;62.65;98648.66;5095845;28;20501;-81
2021/03/24 13:51:47;;;;;;;13.63;5.67;;;13.10;93.80;;;13.54;64.29;98639.59;5095892;28;20423;-81
2021/03/24 13:59:01;;;;;;;10.60;6.37;;;13.20;92.60;;;13.74;59.41;98634.50;5095703;28;20450;-81
2021/03/24 14:05:43;;;;;;;15.83;7.20;;;13.60;92.30;;;14.75;53.65;98644.25;5095655;28;20533;-82
2021/03/24 14:12:40;;;;;;;13.63;6.70;;;14.40;90.40;;;15.68;52.64;98614.38;5095695;28;20451;-81
2021/03/24 14:19:25;;;;;;;11.33;6.43;;;15.20;90.00;;;16.02;49.82;98608.00;5095220;28;20504;-82
2021/03/24 14:26:09;;;;;;;9.60;5.43;;;15.70;88.20;;;16.02;49.02;98589.53;5095275;28;20446;-82
2021/03/24 14:32:55;;;;;;;12.07;6.27;;;15.60;88.50;;;15.90;49.83;98591.19;5095283;28;20506;-86
2021/03/24 14:39:42;;;;;;;16.10;6.47;;;15.30;87.20;;;15.85;49.25;98583.09;5094641;28;20465;-85
2021/03/24 14:50:55;;;;;;;11.70;5.23;;;15.60;85.60;;;16.04;49.07;98582.22;5094733;28;20426;-86
2021/03/24 14:57:36;;;;;;;10.77;6.00;;;15.60;88.20;;;16.11;49.54;98573.25;5093849;28;20434;-86
2021/03/24 15:04:33;;;;;;;10.47;5.80;;;15.70;85.70;;;16.23;47.40;98575.25;5094137;28;20418;-85
2021/03/24 15:11:30;;;;;;;8.57;5.67;;;15.80;84.70;;;16.30;47.79;98573.38;5093841;28;20854;-85
2021/03/24 15:18:17;;;;;;;10.60;5.70;;;15.80;83.90;;;16.30;46.51;98576.84;5093833;28;20776;-85
2021/03/24 15:25:09;;;;;;;10.90;5.37;;;15.70;82.60;;;16.34;46.35;98562.19;5093711;28;20442;-85
2021/03/24 15:31:55;;;;;;;13.10;5.40;;;15.90;83.40;;;16.53;46.23;98563.09;5094001;28;20426;-86
2021/03/24 15:38:37;;;;;;;31.60;15.50;;;16.10;81.90;;;16.62;44.81;98555.78;5093500;28;20450;-85
2021/03/24 15:45:31;;;;;;;13.43;5.53;;;16.10;81.90;;;16.56;45.29;98544.22;5093345;28;20499;-85
2021/03/24 15:52:29;;;;;;;10.30;6.57;;;16.20;81.70;;;16.73;44.97;98544.53;5093396;28;20839;-85
2021/03/24 15:59:20;;;;;;;11.70;5.47;;;16.20;81.40;;;16.81;44.95;98542.44;5093211;28;20504;-85
2021/03/24 16:06:08;;;;;;;18.20;5.27;;;16.50;82.20;;;16.73;45.99;98541.91;5093283;28;20532;-84
2021/03/24 16:13:15;;;;;;;13.70;6.00;;;16.30;81.20;;;16.73;45.08;98539.25;5093195;28;20423;-85
2021/03/24 16:19:52;;;;;;;10.50;5.40;;;16.10;81.00;;;16.53;45.06;98540.16;5092915;28;20580;-85
2021/03/24 16:27:14;;;;;;;10.53;5.10;;;15.90;81.60;;;16.28;44.95;98541.91;5093023;28;20990;-85
2021/03/24 16:34:31;;;;;;;13.30;6.67;;;15.50;81.50;;;16.05;45.72;98546.91;5092947;28;20795;-85
2021/03/24 16:41:23;;;;;;;8.97;4.80;;;15.20;82.10;;;15.76;46.46;98547.41;5092832;28;20499;-85
2021/03/24 16:52:57;;;;;;;12.17;5.33;;;15.00;84.20;;;15.42;48.87;98538.72;5092566;28;20435;-84
2021/03/24 16:59:45;;;;;;;7.90;4.30;;;14.70;85.40;;;15.18;51.14;98542.00;5092311;28;20462;-85
2021/03/24 17:06:25;;;;;;;46.47;22.73;;;14.40;87.80;;;14.88;53.24;98532.91;5092372;28;20455;-84
2021/03/24 17:13:19;;;;;;;23.33;4.50;;;14.00;90.70;;;14.52;56.30;98544.59;5092128;28;20453;-85
2021/03/24 17:19:59;;;;;;;10.63;5.00;;;13.60;91.50;;;14.22;58.80;98543.28;5091856;28;20466;-85
2021/03/24 17:26:37;;;;;;;11.80;6.00;;;13.10;92.40;;;13.90;61.70;98551.84;5095645;28;20526;-85
2021/03/24 17:33:14;;;;;;;59.47;33.37;;;12.90;92.70;;;13.56;64.81;98552.69;5096035;28;20521;-85
2021/03/24 17:40:37;;;;;;;10.37;3.97;;;12.40;93.30;;;13.24;66.79;98554.09;5095539;28;20516;-85
2021/03/24 17:47:20;;;;;;;11.00;4.40;;;12.10;93.80;;;12.91;68.98;98559.03;5095374;28;20865;-85
2021/03/24 17:54:34;;;;;;;9.37;4.57;;;11.80;94.60;;;12.63;70.95;98566.84;5095278;28;20473;-85
2021/03/24 18:01:18;;;;;;;9.10;4.63;;;11.50;94.50;;;12.39;72.56;98577.69;5095192;28;20557;-84
2021/03/24 18:07:47;;;;;;;11.07;5.57;;;11.30;94.80;;;12.06;74.25;98581.75;5095409;28;20477;-85
2021/03/24 18:14:43;;;;;;;12.00;5.80;;;11.10;95.10;;;11.94;75.00;98585.84;5095143;28;20449;-84
2021/03/24 18:21:20;;;;;;;10.67;6.00;;;11.10;95.20;;;11.81;75.16;98586.47;5094916;28;20879;-84
2021/03/24 18:28:16;;;;;;;9.80;4.80;;;10.80;95.60;;;11.61;76.91;98588.00;5094935;28;20419;-84
2021/03/24 18:34:48;;;;;;;11.30;5.37;;;10.80;95.60;;;11.36;78.82;98597.06;5094425;28;20447;-84
2021/03/24 18:41:25;;;;;;;9.70;5.40;;;10.30;96.40;;;11.07;80.27;98596.00;5094441;28;20414;-84
2021/03/24 18:52:21;;;;;;;8.33;5.60;;;9.90;97.50;;;10.66;83.11;98606.94;5094471;28;20457;-84
2021/03/24 18:59:00;;;;;;;10.03;5.70;;;9.50;97.80;;;10.37;85.17;98618.91;5094070;28;20500;-84
2021/03/24 19:05:35;;;;;;;9.70;5.13;;;9.30;98.10;;;10.19;85.92;98625.38;5093899;28;20430;-83
2021/03/24 19:12:39;;;;;;;10.20;4.70;;;9.30;98.00;;;9.91;87.16;98624.94;5093858;28;20919;-84
2021/03/24 19:19:20;;;;;;;11.90;5.27;;;9.00;98.60;;;9.80;88.15;98620.06;5093614;28;20565;-84
2021/03/24 19:26:20;;;;;;;10.27;4.77;;;8.80;98.90;;;9.58;88.42;98630.25;5093805;28;20828;-83
2021/03/24 19:32:48;;;;;;;7.73;4.60;;;8.60;98.80;;;9.37;89.63;98616.88;5093768;28;20477;-83
2021/03/24 19:39:29;;;;;;;8.40;4.70;;;8.60;98.80;;;9.24;90.93;98632.25;5093384;28;20607;-83
2021/03/24 19:46:23;;;;;;;8.50;4.30;;;8.30;99.20;;;8.99;92.73;98625.38;5093201;28;20902;-84
2021/03/24 19:52:59;;;;;;;6.93;4.37;;;8.20;99.70;;;8.94;92.86;98625.91;5093243;28;20410;-84
2021/03/24 19:59:43;;;;;;;7.50;4.57;;;8.00;99.70;;;8.82;93.71;98636.78;5092970;28;20494;-83
2021/03/24 20:06:42;;;;;;;8.10;4.73;;;7.80;99.90;;;8.65;95.17;98640.34;5093088;28;20850;-82
2021/03/24 20:13:32;;;;;;;13.60;4.80;;;7.50;99.90;;;8.49;95.92;98636.75;5093010;28;20422;-82
2021/03/24 20:20:21;;;;;;;9.90;5.53;;;7.60;99.90;;;8.35;97.54;98634.75;5092735;28;20466;-82
2021/03/24 20:26:49;;;;;;;7.70;5.03;;;7.40;99.90;;;8.17;98.06;98641.81;5092695;28;20485;-83
2021/03/24 20:33:32;;;;;;;11.17;5.47;;;7.20;99.90;;;7.93;100.00;98639.91;5092706;28;20452;-82
2021/03/24 20:40:20;;;;;;;8.73;4.67;;;7.00;99.90;;;7.94;100.00;98627.72;5092508;28;20489;-82
2021/03/24 20:46:54;;;;;;;9.43;4.50;;;7.00;99.90;;;7.81;100.00;98629.94;5092376;28;20584;-82
2021/03/24 20:53:30;;;;;;;6.90;5.00;;;6.80;99.90;;;7.67;100.00;98638.31;5092383;28;20449;-83
2021/03/24 20:59:57;;;;;;;12.73;5.63;;;6.70;99.90;;;7.51;100.00;98626.84;5096395;28;20835;-82
2021/03/24 21:06:31;;;;;;;11.27;5.70;;;6.60;99.90;;;7.47;100.00;98632.47;5096258;28;20760;-82
2021/03/24 21:13:09;;;;;;;10.50;5.03;;;6.50;99.90;;;7.30;100.00;98634.16;5096669;28;20488;-82
2021/03/24 21:19:38;;;;;;;8.67;5.23;;;6.20;99.90;;;7.16;100.00;98629.50;5096077;28;20480;-82
2021/03/24 21:26:07;;;;;;;8.63;5.57;;;6.10;99.90;;;7.02;100.00;98627.44;5095616;28;20465;-81
2021/03/24 21:32:41;;;;;;;9.60;5.10;;;6.00;99.90;;;6.89;100.00;98627.81;5095604;28;20422;-81
2021/03/24 21:39:17;;;;;;;16.17;6.27;;;5.60;99.90;;;6.80;100.00;98625.31;5096215;28;20496;-82
2021/03/24 21:45:51;;;;;;;7.47;5.50;;;5.70;99.90;;;6.63;100.00;98615.75;5095645;28;20419;-82
2021/03/24 21:52:45;;;;;;;8.10;4.73;;;5.70;99.90;;;6.59;100.00;98610.00;5095694;28;20824;-81
2021/03/24 21:59:24;;;;;;;9.03;5.73;;;5.60;99.90;;;6.49;100.00;98615.25;5095477;28;20454;-81
2021/03/24 22:05:58;;;;;;;9.77;5.40;;;5.40;99.90;;;6.37;100.00;98620.81;5095214;28;20461;-82
2021/03/24 22:12:32;;;;;;;7.07;5.23;;;5.40;99.90;;;6.33;100.00;98607.31;5095244;28;20910;-81
2021/03/24 22:19:05;;;;;;;8.53;4.67;;;5.30;99.90;;;6.23;100.00;98603.13;5094899;28;20485;-81
2021/03/24 22:25:41;;;;;;;12.33;5.33;;;5.30;99.90;;;5.97;100.00;98609.00;5094830;28;20465;-81
2021/03/24 22:32:24;;;;;;;9.50;5.90;;;4.90;99.90;;;5.94;100.00;98613.66;5094608;28;20449;-81
2021/03/24 22:39:08;;;;;;;13.33;5.97;;;4.80;99.90;;;5.69;100.00;98619.50;5094263;28;20507;-81
2021/03/24 22:45:43;;;;;;;12.80;5.33;;;4.80;99.90;;;5.72;100.00;98614.00;5094404;28;20454;-81
2021/03/24 22:52:54;;;;;;;9.57;4.80;;;4.80;99.90;;;5.60;100.00;98610.75;5094091;28;20474;-81
2021/03/24 22:59:32;;;;;;;7.43;5.10;;;4.60;99.90;;;5.42;100.00;98610.69;5094449;28;20580;-81
2021/03/24 23:06:10;;;;;;;9.20;5.40;;;4.50;99.90;;;5.41;100.00;98606.47;5094011;28;20470;-81
2021/03/24 23:12:58;;;;;;;9.13;5.30;;;4.50;99.90;;;5.35;100.00;98601.81;5094108;28;20511;-81
2021/03/24 23:19:37;;;;;;;10.80;6.07;;;4.40;99.90;;;5.23;100.00;98596.94;5093473;28;20513;-81
2021/03/24 23:26:10;;;;;;;9.27;5.43;;;4.20;99.90;;;5.23;100.00;98602.97;5093663;28;20919;-81
2021/03/24 23:32:46;;;;;;;14.30;5.47;;;4.20;99.90;;;5.08;100.00;98589.63;5093552;28;20423;-81
2021/03/24 23:39:14;;;;;;;9.63;5.53;;;4.10;99.90;;;5.03;100.00;98584.00;5093210;28;20841;-81
2021/03/24 23:45:41;;;;;;;7.57;5.27;;;4.10;99.90;;;4.94;100.00;98582.25;5093296;28;20915;-81
2021/03/24 23:52:34;;;;;;;7.70;4.90;;;3.80;99.90;;;4.84;100.00;98580.63;5093023;28;20937;-81
2021/03/24 23:59:14;;;;;;;9.10;5.13;;;3.90;99.90;;;4.83;100.00;98582.41;5093153;28;20419;-81
